createdAt,value
2018-04-07T00:00:21.779Z,7.50
2018-04-07T00:02:49.334Z,7.50
2018-04-07T00:05:16.861Z,7.60
2018-04-07T00:07:44.423Z,7.60
2018-04-07T00:10:11.946Z,7.60
2018-04-07T00:12:39.502Z,7.60
2018-04-07T00:15:07.045Z,7.50
2018-04-07T00:17:34.554Z,7.40
2018-04-07T00:20:02.126Z,7.30
2018-04-07T00:22:29.686Z,7.30
2018-04-07T00:24:57.212Z,7.20
2018-04-07T00:27:24.735Z,7.20
2018-04-07T00:29:52.277Z,7.10
2018-04-07T00:32:19.791Z,7.00
2018-04-07T00:34:47.335Z,6.90
2018-04-07T00:37:14.850Z,6.90
2018-04-07T00:39:43.306Z,6.80
2018-04-07T00:42:12.791Z,6.70
2018-04-07T00:44:40.338Z,6.80
2018-04-07T00:47:07.860Z,6.90
2018-04-07T00:49:35.386Z,6.80
2018-04-07T00:52:02.934Z,6.80
2018-04-07T00:54:30.456Z,6.90
2018-04-07T00:56:58.013Z,6.90
2018-04-07T00:59:25.535Z,6.80
2018-04-07T01:01:53.071Z,6.80
2018-04-07T01:04:20.594Z,6.70
2018-04-07T01:06:48.142Z,6.60
2018-04-07T01:09:16.430Z,6.50
2018-04-07T01:11:43.954Z,6.40
2018-04-07T01:14:11.502Z,6.40
2018-04-07T01:16:39.779Z,6.30
2018-04-07T01:19:08.195Z,6.30
2018-04-07T01:21:35.719Z,6.30
2018-04-07T01:24:04.178Z,6.20
2018-04-07T01:26:31.714Z,6.20
2018-04-07T01:28:59.230Z,6.20
2018-04-07T01:31:26.782Z,6.20
2018-04-07T01:33:55.074Z,6.00
2018-04-07T01:36:22.600Z,6.00
2018-04-07T01:38:50.142Z,6.00
2018-04-07T01:41:17.669Z,6.00
2018-04-07T01:43:45.217Z,6.00
2018-04-07T01:46:12.759Z,5.90
2018-04-07T01:48:40.271Z,5.90
2018-04-07T01:51:07.836Z,5.90
2018-04-07T01:53:36.121Z,5.90
2018-04-07T01:56:03.675Z,5.90
2018-04-07T01:58:31.189Z,5.80
2018-04-07T02:00:58.706Z,5.80
2018-04-07T02:03:26.252Z,5.80
2018-04-07T02:05:53.763Z,5.80
2018-04-07T02:08:21.311Z,5.80
2018-04-07T02:10:48.833Z,5.80
2018-04-07T02:13:16.342Z,5.90
2018-04-07T02:15:43.886Z,5.70
2018-04-07T02:18:11.402Z,5.70
2018-04-07T02:20:38.942Z,5.70
2018-04-07T02:23:06.460Z,5.50
2018-04-07T02:25:34.002Z,5.50
2018-04-07T02:28:01.556Z,5.60
2018-04-07T02:30:29.072Z,5.60
2018-04-07T02:32:56.641Z,5.60
2018-04-07T02:35:24.173Z,5.60
2018-04-07T02:37:52.650Z,5.60
2018-04-07T02:40:21.225Z,5.60
2018-04-07T02:42:48.734Z,5.60
2018-04-07T02:45:16.296Z,5.60
2018-04-07T02:47:43.807Z,5.60
2018-04-07T02:50:11.314Z,5.50
2018-04-07T02:52:38.854Z,5.50
2018-04-07T02:55:06.364Z,5.40
2018-04-07T02:57:33.908Z,5.40
2018-04-07T03:00:04.217Z,5.30
2018-04-07T03:02:31.727Z,5.20
2018-04-07T03:04:59.269Z,5.30
2018-04-07T03:07:26.780Z,5.30
2018-04-07T03:09:54.318Z,5.40
2018-04-07T03:12:21.831Z,5.40
2018-04-07T03:14:49.373Z,5.40
2018-04-07T03:17:17.662Z,5.40
2018-04-07T03:19:45.966Z,5.30
2018-04-07T03:22:13.494Z,5.30
2018-04-07T03:24:41.043Z,5.30
2018-04-07T03:27:08.560Z,5.20
2018-04-07T03:29:36.112Z,5.20
2018-04-07T03:32:03.617Z,5.10
2018-04-07T03:34:31.159Z,5.10
2018-04-07T03:36:58.682Z,5.10
2018-04-07T03:39:26.231Z,5.10
2018-04-07T03:41:53.751Z,5.10
2018-04-07T03:44:21.291Z,5.10
2018-04-07T03:46:48.819Z,5.10
2018-04-07T03:49:16.360Z,5.10
2018-04-07T03:51:44.902Z,5.10
2018-04-07T03:54:12.453Z,5.00
2018-04-07T03:56:39.973Z,5.00
2018-04-07T03:59:07.511Z,4.90
2018-04-07T04:01:35.031Z,4.90
2018-04-07T04:04:02.586Z,4.90
2018-04-07T04:06:30.920Z,4.80
2018-04-07T04:08:58.470Z,4.80
2018-04-07T04:11:25.985Z,4.80
2018-04-07T04:13:55.484Z,4.80
2018-04-07T04:16:24.515Z,4.80
2018-04-07T04:18:52.057Z,4.80
2018-04-07T04:21:20.329Z,4.90
2018-04-07T04:23:48.630Z,4.90
2018-04-07T04:26:16.152Z,4.80
2018-04-07T04:28:43.687Z,4.90
2018-04-07T04:31:11.467Z,4.80
2018-04-07T04:33:39.006Z,4.80
2018-04-07T04:36:06.517Z,4.70
2018-04-07T04:38:34.815Z,4.70
2018-04-07T04:41:02.346Z,4.70
2018-04-07T04:43:29.886Z,4.70
2018-04-07T04:45:57.418Z,4.70
2018-04-07T04:48:24.955Z,4.70
2018-04-07T04:50:52.484Z,4.50
2018-04-07T04:53:22.012Z,4.60
2018-04-07T04:55:49.549Z,4.70
2018-04-07T04:58:17.164Z,4.70
2018-04-07T05:00:45.569Z,4.60
2018-04-07T05:03:13.102Z,4.50
2018-04-07T05:05:40.614Z,4.60
2018-04-07T05:08:08.150Z,4.60
2018-04-07T05:10:37.384Z,4.50
2018-04-07T05:13:04.934Z,4.50
2018-04-07T05:15:32.450Z,4.50
2018-04-07T05:17:59.998Z,4.60
2018-04-07T05:20:27.510Z,4.60
2018-04-07T05:22:55.050Z,4.50
2018-04-07T05:25:22.583Z,4.40
2018-04-07T05:27:50.132Z,4.50
2018-04-07T05:30:17.651Z,4.60
2018-04-07T05:32:45.186Z,4.70
2018-04-07T05:35:13.467Z,4.80
2018-04-07T05:37:41.868Z,4.90
2018-04-07T05:40:09.401Z,4.90
2018-04-07T05:42:37.702Z,5.10
2018-04-07T05:45:05.886Z,5.00
2018-04-07T05:47:33.436Z,5.10
2018-04-07T05:50:00.977Z,5.20
2018-04-07T05:52:28.528Z,5.40
2018-04-07T05:54:56.044Z,5.50
2018-04-07T05:57:23.601Z,5.60
2018-04-07T05:59:51.129Z,5.80
2018-04-07T06:02:18.965Z,5.90
2018-04-07T06:04:46.489Z,5.90
2018-04-07T06:07:14.042Z,6.00
2018-04-07T06:09:41.562Z,6.10
2018-04-07T06:12:09.115Z,6.20
2018-04-07T06:14:36.632Z,6.40
2018-04-07T06:17:04.186Z,6.60
2018-04-07T06:19:31.703Z,6.80
2018-04-07T06:21:59.260Z,6.90
2018-04-07T06:24:26.784Z,7.10
2018-04-07T06:26:55.098Z,7.40
2018-04-07T06:29:22.634Z,7.40
2018-04-07T06:31:50.199Z,7.60
2018-04-07T06:34:17.714Z,7.60
2018-04-07T06:36:45.258Z,7.80
2018-04-07T06:39:12.779Z,7.90
2018-04-07T06:41:40.325Z,8.10
2018-04-07T06:44:07.850Z,8.30
2018-04-07T06:46:35.416Z,8.50
2018-04-07T06:49:02.921Z,8.60
2018-04-07T06:51:30.504Z,8.80
2018-04-07T06:53:58.020Z,9.10
2018-04-07T06:56:25.585Z,9.30
2018-04-07T06:58:53.894Z,9.80
2018-04-07T07:01:21.447Z,9.80
2018-04-07T07:03:48.967Z,10.00
2018-04-07T07:06:18.470Z,10.20
2018-04-07T07:08:47.726Z,10.60
2018-04-07T07:11:15.266Z,10.60
2018-04-07T07:13:42.802Z,10.80
2018-04-07T07:16:10.356Z,11.00
2018-04-07T07:18:37.879Z,11.10
2018-04-07T07:21:05.425Z,11.20
2018-04-07T07:23:32.968Z,11.30
2018-04-07T07:26:01.474Z,11.40
2018-04-07T07:28:29.002Z,11.60
2018-04-07T07:30:56.572Z,11.80
2018-04-07T07:33:24.098Z,11.70
2018-04-07T07:35:51.656Z,11.70
2018-04-07T07:38:19.174Z,12.00
2018-04-07T07:40:47.669Z,12.10
2018-04-07T07:43:15.989Z,12.40
2018-04-07T07:45:43.553Z,12.40
2018-04-07T07:48:11.095Z,12.70
2018-04-07T07:50:38.653Z,12.90
2018-04-07T07:53:07.150Z,13.10
2018-04-07T07:55:34.712Z,13.30
2018-04-07T07:58:02.238Z,13.40
2018-04-07T08:00:29.809Z,13.50
2018-04-07T08:02:57.337Z,13.60
2018-04-07T08:05:25.662Z,13.80
2018-04-07T08:07:53.191Z,13.70
2018-04-07T08:10:21.743Z,13.90
2018-04-07T08:12:49.307Z,14.10
2018-04-07T08:15:16.876Z,14.20
2018-04-07T08:17:44.402Z,14.40
2018-04-07T08:20:11.945Z,14.70
2018-04-07T08:22:40.423Z,14.80
2018-04-07T08:25:07.993Z,14.90
2018-04-07T08:27:35.520Z,14.70
2018-04-07T08:30:03.079Z,14.50
2018-04-07T08:32:30.597Z,14.70
2018-04-07T08:34:58.176Z,14.80
2018-04-07T08:37:26.482Z,15.10
2018-04-07T08:39:54.055Z,15.00
2018-04-07T08:42:21.589Z,15.20
2018-04-07T08:44:49.159Z,15.00
2018-04-07T08:47:16.709Z,15.00
2018-04-07T08:49:44.259Z,15.20
2018-04-07T08:52:11.777Z,15.40
2018-04-07T08:54:40.070Z,15.60
2018-04-07T08:57:07.619Z,15.50
2018-04-07T08:59:35.155Z,15.40
2018-04-07T09:02:02.746Z,15.70
2018-04-07T09:04:30.305Z,15.90
2018-04-07T09:06:58.620Z,16.20
2018-04-07T09:09:27.113Z,16.20
2018-04-07T09:11:54.666Z,16.60
2018-04-07T09:14:22.206Z,16.70
2018-04-07T09:16:49.751Z,16.90
2018-04-07T09:19:18.066Z,16.60
2018-04-07T09:21:45.586Z,16.60
2018-04-07T09:24:13.938Z,16.50
2018-04-07T09:26:41.509Z,16.50
2018-04-07T09:29:09.058Z,16.60
2018-04-07T09:31:37.561Z,16.80
2018-04-07T09:34:05.111Z,17.10
2018-04-07T09:36:32.816Z,17.40
2018-04-07T09:39:00.398Z,17.20
2018-04-07T09:41:27.958Z,17.20
2018-04-07T09:43:56.500Z,17.40
2018-04-07T09:46:24.094Z,17.60
2018-04-07T09:48:51.618Z,17.60
2018-04-07T09:51:19.198Z,17.90
2018-04-07T09:53:46.756Z,17.80
2018-04-07T09:56:15.337Z,17.80
2018-04-07T09:58:42.868Z,17.80
2018-04-07T10:01:10.417Z,18.20
2018-04-07T10:03:38.707Z,18.10
2018-04-07T10:06:08.252Z,18.10
2018-04-07T10:08:35.775Z,18.40
2018-04-07T10:11:03.355Z,18.50
2018-04-07T10:13:30.865Z,18.70
2018-04-07T10:15:58.411Z,18.80
2018-04-07T10:18:25.934Z,18.50
2018-04-07T10:20:53.481Z,18.70
2018-04-07T10:23:22.003Z,19.20
2018-04-07T10:25:49.566Z,19.30
2018-04-07T10:28:17.120Z,19.20
2018-04-07T10:30:44.648Z,19.10
2018-04-07T10:33:14.144Z,19.00
2018-04-07T10:35:41.669Z,18.80
2018-04-07T10:38:09.997Z,18.70
2018-04-07T10:40:37.515Z,18.70
2018-04-07T10:43:05.837Z,18.80
2018-04-07T10:45:33.376Z,18.80
2018-04-07T10:48:00.926Z,18.80
2018-04-07T10:50:28.449Z,19.00
2018-04-07T10:52:55.966Z,19.40
2018-04-07T10:55:23.544Z,19.60
2018-04-07T10:57:51.072Z,19.80
2018-04-07T11:00:18.645Z,19.90
2018-04-07T11:02:46.173Z,19.60
2018-04-07T11:05:13.719Z,19.70
2018-04-07T11:07:42.020Z,19.80
2018-04-07T11:10:10.616Z,19.80
2018-04-07T11:12:38.202Z,20.20
2018-04-07T11:15:05.803Z,20.60
2018-04-07T11:17:34.120Z,20.70
2018-04-07T11:20:01.672Z,20.70
2018-04-07T11:22:29.226Z,20.80
2018-04-07T11:24:56.763Z,20.80
2018-04-07T11:27:24.309Z,20.90
2018-04-07T11:29:52.629Z,21.30
2018-04-07T11:32:20.173Z,21.30
2018-04-07T11:34:47.722Z,21.50
2018-04-07T11:37:15.282Z,21.50
2018-04-07T11:39:42.809Z,21.60
2018-04-07T11:42:10.357Z,21.80
2018-04-07T11:44:37.899Z,21.70
2018-04-07T11:47:05.449Z,21.90
2018-04-07T11:49:32.974Z,21.70
2018-04-07T11:52:00.539Z,21.50
2018-04-07T11:54:28.947Z,21.70
2018-04-07T11:56:56.592Z,22.00
2018-04-07T11:59:24.134Z,22.40
2018-04-07T12:01:53.684Z,22.30
2018-04-07T12:04:22.194Z,22.50
2018-04-07T12:06:50.520Z,23.50
2018-04-07T12:09:18.042Z,23.50
2018-04-07T12:11:46.328Z,23.80
2018-04-07T12:14:13.885Z,23.70
2018-04-07T12:16:41.430Z,23.60
2018-04-07T12:19:10.963Z,23.70
2018-04-07T12:21:38.494Z,23.90
2018-04-07T12:24:07.784Z,23.80
2018-04-07T12:26:35.350Z,23.70
2018-04-07T12:29:03.672Z,24.10
2018-04-07T12:31:31.225Z,24.10
2018-04-07T12:33:58.799Z,24.30
2018-04-07T12:36:26.363Z,24.50
2018-04-07T12:38:53.897Z,24.90
2018-04-07T12:41:21.450Z,25.20
2018-04-07T12:43:49.983Z,25.20
2018-04-07T12:46:17.535Z,25.00
2018-04-07T12:48:46.013Z,25.00
2018-04-07T12:51:13.591Z,25.20
2018-04-07T12:53:41.185Z,25.20
2018-04-07T12:56:09.790Z,25.50
2018-04-07T12:58:37.333Z,25.90
2018-04-07T13:01:05.554Z,25.90
2018-04-07T13:03:33.135Z,26.10
2018-04-07T13:06:00.664Z,26.30
2018-04-07T13:08:28.223Z,26.50
2018-04-07T13:13:29.634Z,26.30
2018-04-07T13:15:57.927Z,26.30
2018-04-07T13:18:26.546Z,26.30
2018-04-07T13:20:54.094Z,26.50
2018-04-07T13:23:21.858Z,26.60
2018-04-07T13:25:50.533Z,26.00
2018-04-07T13:28:19.103Z,25.30
2018-04-07T13:30:46.662Z,25.30
2018-04-07T13:33:14.354Z,25.80
2018-04-07T13:35:41.905Z,26.50
2018-04-07T13:38:10.376Z,26.90
2018-04-07T13:40:37.931Z,27.10
2018-04-07T13:43:05.457Z,27.30
2018-04-07T13:45:33.769Z,27.30
2018-04-07T13:48:02.250Z,27.20
2018-04-07T13:50:30.730Z,27.40
2018-04-07T13:52:58.282Z,26.80
2018-04-07T13:55:25.806Z,26.90
2018-04-07T13:57:53.366Z,26.20
2018-04-07T14:00:21.655Z,26.80
2018-04-07T14:02:49.193Z,26.70
2018-04-07T14:05:17.718Z,27.20
2018-04-07T14:07:45.280Z,27.80
2018-04-07T14:10:12.839Z,27.60
2018-04-07T14:12:40.498Z,27.90
2018-04-07T14:15:09.018Z,28.30
2018-04-07T14:17:36.557Z,28.50
2018-04-07T14:20:04.122Z,28.80
2018-04-07T14:22:31.642Z,28.40
2018-04-07T14:24:59.233Z,27.50
2018-04-07T14:27:26.858Z,27.40
2018-04-07T14:29:54.398Z,27.20
2018-04-07T14:32:21.913Z,27.70
2018-04-07T14:34:49.562Z,28.40
2018-04-07T14:37:17.173Z,27.30
2018-04-07T14:39:44.694Z,26.70
2018-04-07T14:42:12.444Z,27.00
2018-04-07T14:44:40.938Z,27.00
2018-04-07T14:47:08.490Z,26.90
2018-04-07T14:49:36.014Z,27.10
2018-04-07T14:52:03.566Z,27.30
2018-04-07T14:54:31.850Z,26.70
2018-04-07T14:56:59.385Z,26.60
2018-04-07T14:59:26.937Z,27.70
2018-04-07T15:01:54.456Z,28.00
2018-04-07T15:04:22.007Z,28.20
2018-04-07T15:06:49.543Z,28.80
2018-04-07T15:09:17.875Z,29.60
2018-04-07T15:11:45.397Z,29.60
2018-04-07T15:14:13.081Z,29.10
2018-04-07T15:16:40.643Z,28.70
2018-04-07T15:19:08.169Z,29.10
2018-04-07T15:21:35.724Z,28.90
2018-04-07T15:24:04.001Z,28.80
2018-04-07T15:26:32.499Z,28.80
2018-04-07T15:29:00.034Z,30.10
2018-04-07T15:31:27.583Z,30.50
2018-04-07T15:33:55.130Z,31.60
2018-04-07T15:36:22.686Z,32.50
2018-04-07T15:38:50.225Z,33.70
2018-04-07T15:41:18.707Z,34.10
2018-04-07T15:43:46.278Z,34.00
2018-04-07T15:46:14.387Z,34.10
2018-04-07T15:48:41.936Z,34.20
2018-04-07T15:51:10.221Z,33.80
2018-04-07T15:53:37.826Z,33.80
2018-04-07T15:56:05.371Z,33.70
2018-04-07T15:58:32.898Z,33.20
2018-04-07T16:01:01.255Z,33.30
2018-04-07T16:03:29.560Z,33.20
2018-04-07T16:05:57.114Z,33.20
2018-04-07T16:08:25.397Z,30.30
2018-04-07T16:10:52.971Z,30.20
2018-04-07T16:13:20.525Z,28.80
2018-04-07T16:15:48.070Z,28.00
2018-04-07T16:18:15.586Z,27.40
2018-04-07T16:20:43.137Z,26.90
2018-04-07T16:23:10.658Z,26.40
2018-04-07T16:25:38.169Z,25.80
2018-04-07T16:28:05.724Z,25.60
2018-04-07T16:30:34.039Z,25.10
2018-04-07T16:33:01.594Z,25.00
2018-04-07T16:35:29.879Z,24.70
2018-04-07T16:37:57.418Z,24.70
2018-04-07T16:40:25.710Z,24.30
2018-04-07T16:42:54.805Z,24.30
2018-04-07T16:45:24.082Z,23.80
2018-04-07T16:47:51.599Z,23.70
2018-04-07T16:50:19.143Z,23.40
2018-04-07T16:52:46.681Z,23.10
2018-04-07T16:55:14.234Z,22.90
2018-04-07T16:57:41.754Z,22.70
2018-04-07T17:00:11.239Z,22.50
2018-04-07T17:02:38.801Z,22.40
2018-04-07T17:05:06.365Z,22.20
2018-04-07T17:07:33.898Z,21.90
2018-04-07T17:10:01.424Z,21.70
2018-04-07T17:12:29.003Z,21.50
2018-04-07T17:14:56.531Z,21.30
2018-04-07T17:17:24.091Z,21.10
2018-04-07T17:19:54.547Z,20.80
2018-04-07T17:22:22.108Z,20.70
2018-04-07T17:24:49.762Z,20.50
2018-04-07T17:27:18.053Z,20.10
2018-04-07T17:29:47.555Z,20.10
2018-04-07T17:32:15.086Z,19.90
2018-04-07T17:34:42.648Z,19.70
2018-04-07T17:37:10.162Z,19.60
2018-04-07T17:39:37.713Z,19.30
2018-04-07T17:42:05.252Z,19.10
2018-04-07T17:44:32.811Z,18.90
2018-04-07T17:47:00.353Z,18.70
2018-04-07T17:49:27.887Z,18.60
2018-04-07T17:51:55.472Z,18.50
2018-04-07T17:54:23.002Z,18.30
2018-04-07T17:56:50.573Z,18.10
2018-04-07T17:59:18.865Z,18.00
2018-04-07T18:01:47.157Z,18.00
2018-04-07T18:04:14.727Z,17.90
2018-04-07T18:06:42.255Z,17.80
2018-04-07T18:09:10.924Z,17.70
2018-04-07T18:11:38.689Z,17.70
2018-04-07T18:14:06.982Z,17.70
2018-04-07T18:16:35.541Z,17.70
2018-04-07T18:19:03.071Z,17.70
2018-04-07T18:21:30.623Z,17.60
2018-04-07T18:23:59.765Z,17.50
2018-04-07T18:26:28.097Z,17.10
2018-04-07T18:28:55.647Z,17.10
2018-04-07T18:31:24.136Z,17.00
2018-04-07T18:33:51.680Z,17.00
2018-04-07T18:36:19.228Z,17.00
2018-04-07T18:38:46.841Z,17.10
2018-04-07T18:41:14.380Z,17.10
2018-04-07T18:43:43.899Z,17.10
2018-04-07T18:46:11.589Z,17.00
2018-04-07T18:48:39.154Z,17.00
2018-04-07T18:51:07.446Z,17.00
2018-04-07T18:53:35.118Z,17.00
2018-04-07T18:56:02.902Z,17.10
2018-04-07T18:58:30.422Z,17.20
2018-04-07T19:00:58.030Z,17.20
2018-04-07T19:03:25.556Z,17.00
2018-04-07T19:05:53.134Z,16.90
2018-04-07T19:08:20.656Z,16.90
2018-04-07T19:10:48.220Z,16.90
2018-04-07T19:13:16.557Z,16.60
2018-04-07T19:15:44.094Z,16.50
2018-04-07T19:18:13.588Z,16.40
2018-04-07T19:20:41.146Z,16.00
2018-04-07T19:23:08.691Z,15.80
2018-04-07T19:25:36.232Z,15.70
2018-04-07T19:28:04.548Z,15.70
2018-04-07T19:30:32.098Z,15.70
2018-04-07T19:33:05.293Z,15.70
2018-04-07T19:35:32.864Z,15.70
2018-04-07T19:38:00.397Z,15.80
2018-04-07T19:40:27.955Z,15.70
2018-04-07T19:42:55.493Z,15.60
2018-04-07T19:45:23.782Z,15.40
2018-04-07T19:47:51.346Z,15.30
2018-04-07T19:50:18.857Z,15.20
2018-04-07T19:52:46.406Z,15.10
2018-04-07T19:55:14.144Z,14.90
2018-04-07T19:57:41.792Z,14.70
2018-04-07T20:00:09.328Z,14.60
2018-04-07T20:02:36.850Z,14.50
2018-04-07T20:05:04.398Z,14.50
2018-04-07T20:07:31.921Z,14.60
2018-04-07T20:09:59.467Z,14.70
2018-04-07T20:12:27.760Z,14.80
2018-04-07T20:14:55.312Z,14.80
2018-04-07T20:17:22.845Z,14.80
2018-04-07T20:19:50.362Z,14.70
2018-04-07T20:22:17.910Z,14.60
2018-04-07T20:24:45.558Z,14.50
2018-04-07T20:27:13.141Z,14.40
2018-04-07T20:29:41.217Z,14.30
2018-04-07T20:32:08.801Z,14.20
2018-04-07T20:34:36.351Z,14.10
2018-04-07T20:37:03.896Z,14.00
2018-04-07T20:39:31.458Z,14.00
2018-04-07T20:42:10.755Z,13.90
2018-04-07T20:44:38.321Z,13.90
2018-04-07T20:47:06.913Z,13.80
2018-04-07T20:49:36.374Z,13.80
2018-04-07T20:52:03.898Z,13.80
2018-04-07T20:54:32.380Z,13.80
2018-04-07T20:56:59.922Z,13.70
2018-04-07T20:59:27.458Z,13.50
2018-04-07T21:01:55.033Z,13.50
2018-04-07T21:04:22.558Z,13.50
2018-04-07T21:06:50.934Z,13.40
2018-04-07T21:09:18.458Z,13.40
2018-04-07T21:11:45.986Z,13.40
2018-04-07T21:14:13.548Z,13.40
2018-04-07T21:16:41.076Z,13.30
2018-04-07T21:19:09.434Z,13.30
2018-04-07T21:21:36.934Z,13.30
2018-04-07T21:24:05.261Z,13.30
2018-04-07T21:26:32.795Z,13.30
2018-04-07T21:29:00.338Z,13.20
2018-04-07T21:31:27.887Z,13.20
2018-04-07T21:33:55.407Z,13.10
2018-04-07T21:36:22.961Z,13.10
2018-04-07T21:38:51.432Z,13.10
2018-04-07T21:41:18.978Z,13.10
2018-04-07T21:43:46.490Z,13.00
2018-04-07T21:46:14.780Z,12.90
2018-04-07T21:48:42.369Z,12.90
2018-04-07T21:51:09.892Z,12.90
2018-04-07T21:53:37.446Z,12.90
2018-04-07T21:56:05.000Z,12.90
2018-04-07T21:58:32.556Z,12.70
2018-04-07T22:01:00.073Z,12.70
2018-04-07T22:03:27.598Z,12.70
2018-04-07T22:05:55.161Z,12.70
2018-04-07T22:08:22.686Z,12.60
2018-04-07T22:10:51.020Z,12.40
2018-04-07T22:13:18.543Z,12.30
2018-04-07T22:15:46.115Z,12.30
2018-04-07T22:18:13.654Z,12.40
2018-04-07T22:20:41.185Z,12.40
2018-04-07T22:23:08.743Z,12.30
2018-04-07T22:25:37.058Z,12.20
2018-04-07T22:28:04.611Z,12.10
2018-04-07T22:30:32.127Z,12.10
2018-04-07T22:33:00.462Z,12.10
2018-04-07T22:35:27.980Z,12.10
2018-04-07T22:37:56.270Z,12.00
2018-04-07T22:40:23.838Z,12.00
2018-04-07T22:42:51.376Z,11.90
2018-04-07T22:45:18.934Z,11.90
2018-04-07T22:47:46.457Z,11.90
2018-04-07T22:50:14.014Z,11.90
2018-04-07T22:52:41.540Z,11.80
2018-04-07T22:55:09.067Z,11.80
2018-04-07T22:57:36.618Z,11.80
2018-04-07T23:00:04.154Z,11.80
2018-04-07T23:02:31.706Z,11.90
2018-04-07T23:04:59.239Z,11.90
2018-04-07T23:07:26.791Z,11.80
2018-04-07T23:09:54.324Z,11.80
2018-04-07T23:12:21.864Z,11.70
2018-04-07T23:14:49.409Z,11.70
2018-04-07T23:17:16.930Z,11.80
2018-04-07T23:19:44.481Z,11.70
2018-04-07T23:22:12.017Z,11.70
2018-04-07T23:24:40.341Z,11.80
2018-04-07T23:27:07.897Z,11.80
2018-04-07T23:29:35.439Z,11.80
2018-04-07T23:32:03.004Z,11.80
2018-04-07T23:34:31.536Z,11.80
2018-04-07T23:36:59.061Z,11.70
2018-04-07T23:39:26.639Z,11.80
2018-04-07T23:41:54.178Z,11.80
2018-04-07T23:44:21.726Z,11.80
2018-04-07T23:46:50.187Z,11.90
2018-04-07T23:49:17.742Z,11.80
2018-04-07T23:51:45.283Z,11.90
2018-04-07T23:54:13.613Z,12.00
2018-04-07T23:56:41.164Z,12.00
2018-04-07T23:59:08.689Z,12.10
